Time;durP1;ratioP1;P1;durP2;ratioP2;P2;SDS_P1;SDS_P2;PMS_P1;PMS_P2;Temp;Humidity;BMP_temperature;BMP_pressure;BME280_temperature;BME280_humidity;BME280_pressure;Samples;Min_cycle;Max_cycle;Signal;HPM_P1;HPM_P2
2022/08/27 00:01:16;;;;;;;4.15;1.13;;;19.30;99.90;;;;;;4977146;28;20117;-77
2022/08/27 00:03:43;;;;;;;3.97;1.30;;;19.30;99.90;;;;;;4992861;28;20042;-77
2022/08/27 00:06:12;;;;;;;2.70;0.90;;;19.20;99.90;;;;;;4976908;28;20039;-77
2022/08/27 00:08:39;;;;;;;2.63;1.15;;;19.20;99.90;;;;;;4976081;28;20098;-77
2022/08/27 00:11:05;;;;;;;4.60;1.27;;;19.00;99.90;;;;;;4977162;28;20074;-77
2022/08/27 00:13:30;;;;;;;8.20;1.40;;;19.00;99.90;;;;;;4978288;28;20078;-76
2022/08/27 00:15:56;;;;;;;4.03;1.20;;;19.00;99.90;;;;;;4979898;28;20050;-76
2022/08/27 00:18:22;;;;;;;4.35;1.50;;;18.90;99.90;;;;;;4996267;28;20050;-76
2022/08/27 00:20:47;;;;;;;3.97;1.10;;;18.90;99.90;;;;;;4981146;28;20038;-76
2022/08/27 00:23:13;;;;;;;3.50;1.27;;;18.90;99.90;;;;;;4996043;28;20181;-77
2022/08/27 00:25:39;;;;;;;3.80;1.30;;;18.90;99.90;;;;;;4996224;28;20042;-76
2022/08/27 00:28:05;;;;;;;2.25;1.02;;;19.00;99.90;;;;;;4979718;28;20058;-76
2022/08/27 00:30:30;;;;;;;5.75;1.50;;;19.00;99.90;;;;;;4980534;28;20039;-77
2022/08/27 00:32:56;;;;;;;4.95;1.30;;;19.00;99.90;;;;;;4979432;28;20039;-76
2022/08/27 00:35:22;;;;;;;4.63;1.38;;;19.00;99.90;;;;;;4980810;28;20046;-76
2022/08/27 00:37:48;;;;;;;9.38;1.65;;;19.00;99.90;;;;;;4980435;28;20043;-77
2022/08/27 00:40:17;;;;;;;8.00;2.13;;;19.00;99.90;;;;;;4995768;28;20082;-77
2022/08/27 00:42:44;;;;;;;5.40;2.45;;;19.00;99.90;;;;;;4980575;28;20121;-76
2022/08/27 00:45:14;;;;;;;8.73;2.53;;;19.10;99.90;;;;;;4979578;28;20122;-76
2022/08/27 00:47:45;;;;;;;8.90;2.10;;;19.10;99.90;;;;;;4995366;28;20050;-77
2022/08/27 00:50:16;;;;;;;6.75;2.25;;;19.00;99.90;;;;;;4979432;28;20042;-76
2022/08/27 00:52:53;;;;;;;5.53;2.00;;;19.00;99.90;;;;;;4980361;28;20035;-77
2022/08/27 00:55:22;;;;;;;6.57;2.35;;;19.10;99.90;;;;;;4979346;28;20078;-77
2022/08/27 00:57:55;;;;;;;6.78;2.97;;;19.00;99.90;;;;;;4980295;28;20090;-76
2022/08/27 01:00:21;;;;;;;9.32;2.50;;;19.10;99.90;;;;;;4980195;28;20054;-76
2022/08/27 01:02:47;;;;;;;6.75;2.60;;;19.00;99.90;;;;;;4980132;28;20046;-76
2022/08/27 01:05:17;;;;;;;5.85;3.03;;;19.00;99.90;;;;;;4980022;28;20041;-76
2022/08/27 01:07:49;;;;;;;4.65;2.30;;;19.10;99.90;;;;;;4979595;28;20433;-76
2022/08/27 01:10:18;;;;;;;9.02;2.50;;;19.00;99.90;;;;;;4980131;28;20043;-76
2022/08/27 01:12:45;;;;;;;7.05;2.30;;;19.00;99.90;;;;;;4980008;28;20571;-77
2022/08/27 01:15:13;;;;;;;8.25;2.42;;;19.10;99.90;;;;;;4994991;28;20050;-76
2022/08/27 01:17:41;;;;;;;10.57;2.50;;;19.10;99.90;;;;;;4980091;28;20074;-76
2022/08/27 01:20:12;;;;;;;8.43;2.55;;;19.10;99.90;;;;;;4979977;28;20051;-76
2022/08/27 01:22:45;;;;;;;8.57;2.63;;;19.00;99.90;;;;;;4979599;28;20129;-77
2022/08/27 01:25:15;;;;;;;7.55;2.63;;;19.00;99.90;;;;;;4994190;28;20042;-76
2022/08/27 01:27:42;;;;;;;10.82;2.53;;;19.00;99.90;;;;;;4979589;28;20039;-76
2022/08/27 01:30:11;;;;;;;6.88;2.00;;;19.00;99.90;;;;;;4979889;28;20039;-76
2022/08/27 01:32:37;;;;;;;4.05;2.22;;;19.00;99.90;;;;;;4979563;28;20381;-76
2022/08/27 01:35:07;;;;;;;7.03;2.70;;;19.10;99.90;;;;;;4978384;28;20105;-77
2022/08/27 01:37:34;;;;;;;9.80;2.78;;;19.10;99.90;;;;;;4994203;28;20054;-77
2022/08/27 01:40:00;;;;;;;4.85;2.40;;;18.90;99.90;;;;;;4979343;28;20422;-77
2022/08/27 01:42:35;;;;;;;6.82;2.35;;;18.90;99.90;;;;;;4995011;28;20046;-76
2022/08/27 01:45:06;;;;;;;7.28;2.40;;;19.00;99.90;;;;;;4979274;28;20505;-76
2022/08/27 01:47:33;;;;;;;6.18;2.03;;;19.00;99.90;;;;;;4978584;28;20109;-77
2022/08/27 01:50:02;;;;;;;6.32;2.08;;;19.00;99.90;;;;;;4978073;28;20049;-76
2022/08/27 01:52:29;;;;;;;6.60;2.10;;;19.00;99.90;;;;;;4979518;28;20390;-76
2022/08/27 01:54:55;;;;;;;6.15;2.05;;;19.00;99.90;;;;;;4978159;28;20039;-76
2022/08/27 01:57:21;;;;;;;11.45;2.70;;;18.90;99.90;;;;;;4994386;28;20310;-77
2022/08/27 01:59:47;;;;;;;4.68;2.10;;;19.00;99.90;;;;;;4979108;28;20054;-76
2022/08/27 02:02:15;;;;;;;4.47;2.30;;;18.90;99.90;;;;;;4979115;28;20330;-77
2022/08/27 02:04:41;;;;;;;9.15;2.70;;;18.90;99.90;;;;;;4979282;28;20042;-76
2022/08/27 02:07:08;;;;;;;7.90;2.25;;;18.80;99.90;;;;;;4978528;28;20055;-76
2022/08/27 02:09:34;;;;;;;4.93;2.30;;;18.70;99.90;;;;;;4978998;28;20045;-77
2022/08/27 02:12:00;;;;;;;8.05;2.40;;;18.60;99.90;;;;;;4994020;28;20049;-76
2022/08/27 02:14:27;;;;;;;4.15;1.98;;;18.60;99.90;;;;;;4979120;28;20039;-77
2022/08/27 02:16:53;;;;;;;8.20;2.20;;;18.60;99.90;;;;;;4978703;28;20035;-76
2022/08/27 02:19:20;;;;;;;9.45;2.50;;;18.50;99.90;;;;;;4978650;28;20454;-76
2022/08/27 02:21:47;;;;;;;7.18;2.22;;;18.50;99.90;;;;;;4994213;28;20062;-76
2022/08/27 02:24:12;;;;;;;7.00;2.50;;;18.50;99.90;;;;;;4978630;28;20035;-76
2022/08/27 02:26:38;;;;;;;7.32;2.13;;;18.40;99.90;;;;;;4978780;28;20113;-76
2022/08/27 02:29:04;;;;;;;9.80;2.95;;;18.20;99.90;;;;;;4993712;28;20043;-76
2022/08/27 02:31:30;;;;;;;8.40;2.55;;;18.20;99.90;;;;;;4978697;28;20046;-77
2022/08/27 02:33:56;;;;;;;5.93;2.45;;;18.10;99.90;;;;;;4978226;28;20134;-76
2022/08/27 02:36:23;;;;;;;5.53;2.22;;;18.00;99.90;;;;;;4977185;28;20047;-77
2022/08/27 02:38:49;;;;;;;9.73;2.75;;;18.00;99.90;;;;;;4977499;28;20089;-77
2022/08/27 02:41:15;;;;;;;4.47;2.22;;;17.90;99.90;;;;;;4993589;28;20341;-77
2022/08/27 02:43:42;;;;;;;4.65;1.92;;;17.90;99.90;;;;;;4978348;28;20149;-76
2022/08/27 02:46:10;;;;;;;6.63;2.22;;;17.80;99.90;;;;;;4993668;28;20122;-77
2022/08/27 02:48:40;;;;;;;6.28;2.13;;;17.80;99.90;;;;;;4977070;28;20465;-76
2022/08/27 02:51:06;;;;;;;4.78;1.80;;;17.70;99.90;;;;;;4978212;28;20045;-76
2022/08/27 02:53:33;;;;;;;6.85;2.00;;;17.70;99.90;;;;;;4993479;28;20064;-76
2022/08/27 02:55:58;;;;;;;4.40;1.90;;;17.70;99.90;;;;;;4976937;28;20057;-76
2022/08/27 02:58:24;;;;;;;4.32;1.90;;;17.60;99.90;;;;;;4976948;28;20046;-77
2022/08/27 03:00:50;;;;;;;8.38;1.90;;;17.50;99.90;;;;;;4993085;28;20093;-76
2022/08/27 03:03:16;;;;;;;5.28;2.15;;;17.50;99.90;;;;;;4977258;28;20097;-77
2022/08/27 03:05:42;;;;;;;6.75;2.58;;;17.50;99.90;;;;;;4977210;28;20077;-76
2022/08/27 03:08:07;;;;;;;4.25;2.15;;;17.50;99.90;;;;;;4977557;28;20042;-76
2022/08/27 03:10:33;;;;;;;4.70;1.90;;;17.50;99.90;;;;;;4993052;28;20041;-76
2022/08/27 03:12:59;;;;;;;3.70;1.70;;;17.50;99.90;;;;;;4977030;28;20410;-77
2022/08/27 03:15:25;;;;;;;4.68;2.00;;;17.50;99.90;;;;;;4977803;28;20122;-76
2022/08/27 03:20:40;;;;;;;6.65;2.05;;;17.40;99.90;;;;;;4993221;28;20425;-76
2022/08/27 03:23:08;;;;;;;4.88;2.33;;;17.40;99.90;;;;;;4977634;28;20453;-76
2022/08/27 03:25:34;;;;;;;4.93;2.10;;;17.40;99.90;;;;;;4977601;28;20042;-77
2022/08/27 03:28:00;;;;;;;4.03;2.03;;;17.40;99.90;;;;;;4976497;28;20051;-76
2022/08/27 03:30:26;;;;;;;8.10;2.10;;;17.40;99.90;;;;;;4977679;28;20118;-76
2022/08/27 03:32:52;;;;;;;6.03;2.28;;;17.50;99.90;;;;;;4992705;28;20039;-76
2022/08/27 03:35:19;;;;;;;4.85;1.90;;;17.50;99.90;;;;;;4977555;28;20043;-76
2022/08/27 03:37:45;;;;;;;3.33;1.83;;;17.50;99.90;;;;;;4977290;28;20061;-76
2022/08/27 03:40:11;;;;;;;4.90;1.90;;;17.50;99.90;;;;;;4977506;28;20042;-76
2022/08/27 03:42:38;;;;;;;5.53;2.42;;;17.50;99.90;;;;;;4977691;28;20418;-76
2022/08/27 03:45:05;;;;;;;3.60;2.03;;;17.50;99.90;;;;;;4977505;28;20050;-76
2022/08/27 03:47:31;;;;;;;5.47;2.20;;;17.50;99.90;;;;;;4978170;28;20047;-76
2022/08/27 03:49:59;;;;;;;5.50;2.03;;;17.50;99.90;;;;;;4981711;28;20122;-76
2022/08/27 03:52:25;;;;;;;5.20;2.90;;;17.50;99.90;;;;;;4981596;28;20050;-76
2022/08/27 03:54:51;;;;;;;5.80;2.50;;;17.50;99.90;;;;;;4981387;28;20038;-77
2022/08/27 03:57:17;;;;;;;5.75;2.70;;;17.50;99.90;;;;;;4996660;28;20039;-76
2022/08/27 03:59:43;;;;;;;4.25;2.50;;;17.50;99.90;;;;;;4981408;28;20115;-76
2022/08/27 04:02:08;;;;;;;6.75;2.90;;;17.40;99.90;;;;;;4980127;28;20035;-76
2022/08/27 04:04:34;;;;;;;4.30;2.35;;;17.40;99.90;;;;;;4981293;28;20049;-76
2022/08/27 04:07:00;;;;;;;4.55;2.35;;;17.40;99.90;;;;;;4980753;28;20043;-76
2022/08/27 04:09:26;;;;;;;5.25;2.30;;;17.50;99.90;;;;;;4980235;28;20042;-76
2022/08/27 04:11:52;;;;;;;5.00;2.15;;;17.50;99.90;;;;;;4981028;28;20035;-76
2022/08/27 04:14:18;;;;;;;5.30;2.35;;;17.50;99.90;;;;;;4981333;28;20038;-76
2022/08/27 04:16:43;;;;;;;4.50;2.20;;;17.50;99.90;;;;;;4981061;28;20369;-76
2022/08/27 04:19:11;;;;;;;3.70;2.10;;;17.40;99.90;;;;;;4980942;28;20412;-76
2022/08/27 04:21:37;;;;;;;6.63;2.25;;;17.40;99.90;;;;;;4996064;28;20047;-76
2022/08/27 04:24:03;;;;;;;6.57;2.00;;;17.40;99.90;;;;;;4980637;28;20429;-77
2022/08/27 04:26:29;;;;;;;4.85;2.28;;;17.30;99.90;;;;;;4981068;28;20041;-76
2022/08/27 04:28:57;;;;;;;3.42;1.95;;;17.30;99.90;;;;;;4980994;28;20105;-76
2022/08/27 04:31:24;;;;;;;5.68;2.05;;;17.20;99.90;;;;;;4980689;28;20077;-76
2022/08/27 04:33:52;;;;;;;5.68;2.15;;;17.20;99.90;;;;;;4980433;28;20062;-76
2022/08/27 04:36:19;;;;;;;5.13;2.15;;;17.10;99.90;;;;;;4979632;28;20070;-77
2022/08/27 04:38:45;;;;;;;3.97;2.40;;;17.10;99.90;;;;;;4995783;28;20047;-76
2022/08/27 04:41:20;;;;;;;5.72;2.40;;;17.00;99.90;;;;;;4995707;28;20045;-76
2022/08/27 04:43:51;;;;;;;4.50;2.70;;;17.00;99.90;;;;;;4979638;28;20050;-76
2022/08/27 04:46:27;;;;;;;4.00;2.15;;;17.10;99.90;;;;;;4980510;28;20449;-76
2022/08/27 04:48:55;;;;;;;3.70;2.42;;;17.10;99.90;;;;;;4995497;28;20342;-76
2022/08/27 04:51:21;;;;;;;6.93;2.67;;;17.00;99.90;;;;;;4980466;28;20122;-76
2022/08/27 04:53:47;;;;;;;7.90;2.85;;;17.00;99.90;;;;;;4980434;28;20132;-76
2022/08/27 04:56:15;;;;;;;5.68;2.70;;;17.00;99.90;;;;;;4995527;28;20050;-76
2022/08/27 04:58:41;;;;;;;4.20;2.10;;;16.90;99.90;;;;;;4979680;28;20319;-76
2022/08/27 05:01:07;;;;;;;4.60;2.58;;;16.90;99.90;;;;;;4978765;28;20179;-76
2022/08/27 05:03:33;;;;;;;5.50;2.22;;;16.90;99.90;;;;;;4979994;28;20051;-76
2022/08/27 05:06:02;;;;;;;3.90;2.22;;;16.90;99.90;;;;;;4995477;28;20310;-76
2022/08/27 05:08:28;;;;;;;6.97;2.70;;;16.90;99.90;;;;;;4979640;28;20045;-76
2022/08/27 05:10:54;;;;;;;4.47;2.30;;;17.00;99.90;;;;;;4977609;28;20421;-80
2022/08/27 05:13:23;;;;;;;3.70;2.22;;;17.00;99.90;;;;;;4993638;28;20417;-79
2022/08/27 05:15:49;;;;;;;6.30;2.38;;;17.10;99.90;;;;;;4979470;28;20038;-76
2022/08/27 05:18:15;;;;;;;3.90;2.10;;;17.20;99.90;;;;;;4979840;28;20125;-76
2022/08/27 05:20:44;;;;;;;6.45;2.35;;;17.20;99.90;;;;;;4995022;28;20054;-76
2022/08/27 05:23:10;;;;;;;7.32;2.75;;;17.20;99.90;;;;;;4979002;28;20043;-76
2022/08/27 05:25:41;;;;;;;8.00;2.40;;;17.20;99.90;;;;;;4979131;28;20108;-76
2022/08/27 05:28:09;;;;;;;3.15;2.17;;;17.30;99.90;;;;;;4978721;28;20094;-76
2022/08/27 05:30:40;;;;;;;4.13;2.28;;;17.40;99.90;;;;;;4979477;28;20437;-76
2022/08/27 05:33:07;;;;;;;4.25;2.38;;;17.50;99.90;;;;;;4994847;28;20389;-76
2022/08/27 05:35:48;;;;;;;4.15;1.88;;;17.60;99.90;;;;;;4995006;28;20055;-77
2022/08/27 05:38:15;;;;;;;7.15;2.20;;;17.60;99.90;;;;;;4979193;28;20047;-76
2022/08/27 05:40:42;;;;;;;5.00;2.22;;;17.70;99.90;;;;;;4979763;28;20034;-76
2022/08/27 05:43:09;;;;;;;5.82;2.20;;;17.80;99.90;;;;;;4994322;28;20111;-76
2022/08/27 05:45:43;;;;;;;5.82;2.30;;;17.90;99.90;;;;;;4978857;28;20426;-76
2022/08/27 05:48:12;;;;;;;4.70;2.10;;;18.00;99.90;;;;;;4979453;28;20046;-76
2022/08/27 05:50:39;;;;;;;4.53;1.92;;;18.00;99.90;;;;;;4979205;28;20046;-76
2022/08/27 05:53:05;;;;;;;5.75;2.00;;;18.20;99.90;;;;;;4979407;28;20093;-76
2022/08/27 05:55:39;;;;;;;4.53;2.03;;;18.20;99.90;;;;;;4994320;28;20422;-76
2022/08/27 05:58:07;;;;;;;5.28;1.80;;;18.30;99.90;;;;;;4978168;28;20047;-76
2022/08/27 06:03:20;;;;;;;4.93;1.77;;;18.60;99.90;;;;;;4979119;28;20061;-77
2022/08/27 06:05:45;;;;;;;4.60;2.25;;;18.70;99.90;;;;;;4978987;28;20349;-76
2022/08/27 06:08:12;;;;;;;5.70;2.10;;;18.90;99.90;;;;;;4977300;28;20054;-77
2022/08/27 06:10:41;;;;;;;7.15;2.67;;;19.00;99.90;;;;;;4978707;28;20109;-77
2022/08/27 06:13:07;;;;;;;4.25;1.92;;;19.00;99.90;;;;;;4978747;28;20465;-76
2022/08/27 06:15:33;;;;;;;6.35;2.20;;;19.10;99.90;;;;;;4978849;28;20310;-77
2022/08/27 06:17:59;;;;;;;5.80;2.03;;;19.20;99.90;;;;;;4978784;28;20050;-76
2022/08/27 06:20:25;;;;;;;4.90;1.90;;;19.30;99.90;;;;;;4994088;28;20425;-76
2022/08/27 06:22:50;;;;;;;10.70;2.40;;;19.20;99.90;;;;;;4978516;28;20049;-76
2022/08/27 06:25:16;;;;;;;7.35;2.10;;;19.20;99.90;;;;;;4977533;28;20054;-77
2022/08/27 06:27:42;;;;;;;6.32;2.00;;;19.40;99.90;;;;;;4978779;28;20045;-76
2022/08/27 06:30:08;;;;;;;8.32;2.00;;;19.20;99.90;;;;;;4993679;28;20121;-76
2022/08/27 06:32:34;;;;;;;3.35;1.65;;;19.10;99.90;;;;;;4978596;28;20039;-76
2022/08/27 06:35:00;;;;;;;5.43;2.15;;;19.20;99.90;;;;;;4993372;28;20054;-76
2022/08/27 06:37:26;;;;;;;6.68;1.80;;;19.40;99.90;;;;;;4976971;28;20054;-77
2022/08/27 06:39:52;;;;;;;7.82;2.72;;;19.60;99.90;;;;;;4978480;28;20050;-76
2022/08/27 06:42:18;;;;;;;5.13;2.00;;;19.70;99.90;;;;;;4993742;28;20346;-76
2022/08/27 06:44:43;;;;;;;5.68;2.10;;;19.70;99.90;;;;;;4978231;28;20043;-76
2022/08/27 06:47:10;;;;;;;7.95;2.50;;;19.70;99.90;;;;;;4978172;28;20039;-76
2022/08/27 06:49:38;;;;;;;5.75;1.77;;;19.70;99.90;;;;;;4978214;28;20322;-76
2022/08/27 06:52:04;;;;;;;7.80;1.92;;;19.60;99.90;;;;;;4977139;28;20430;-76
2022/08/27 06:54:31;;;;;;;6.70;1.83;;;19.60;99.90;;;;;;4993577;28;20038;-76
2022/08/27 06:56:58;;;;;;;7.85;1.70;;;19.90;99.90;;;;;;4978037;28;20042;-76
2022/08/27 06:59:24;;;;;;;7.68;1.90;;;20.00;99.90;;;;;;4993184;28;20077;-76
2022/08/27 07:01:50;;;;;;;5.32;1.20;;;20.20;99.90;;;;;;4978164;28;20062;-76
2022/08/27 07:04:23;;;;;;;8.00;1.75;;;20.10;99.90;;;;;;4978073;28;20404;-76
2022/08/27 07:06:49;;;;;;;7.60;1.50;;;20.00;99.90;;;;;;4977517;28;20050;-80
2022/08/27 07:09:15;;;;;;;5.05;1.00;;;20.10;99.90;;;;;;4977977;28;20314;-75
2022/08/27 07:11:42;;;;;;;3.67;1.15;;;19.70;99.90;;;;;;4977937;28;20038;-77
2022/08/27 07:14:08;;;;;;;7.90;1.10;;;20.00;99.90;;;;;;4977744;28;20118;-72
2022/08/27 07:16:35;;;;;;;7.22;1.48;;;20.10;99.90;;;;;;4977991;28;20086;-75
2022/08/27 07:19:02;;;;;;;9.88;1.20;;;20.30;99.90;;;;;;4977685;28;20425;-69
2022/08/27 07:21:29;;;;;;;8.30;1.33;;;20.40;99.90;;;;;;4977655;28;20337;-72
2022/08/27 07:23:58;;;;;;;8.70;1.20;;;20.50;99.90;;;;;;4977286;28;20142;-72
2022/08/27 07:26:24;;;;;;;9.48;1.58;;;20.70;99.90;;;;;;4977544;28;20437;-71
2022/08/27 07:28:52;;;;;;;6.20;1.23;;;20.90;99.90;;;;;;4977836;28;20047;-71
2022/08/27 07:31:21;;;;;;;7.25;1.35;;;21.00;99.90;;;;;;4977599;28;20435;-71
2022/08/27 07:33:46;;;;;;;7.07;1.95;;;21.20;99.90;;;;;;4977477;28;20047;-71
2022/08/27 07:36:12;;;;;;;10.15;1.48;;;20.70;99.90;;;;;;4977513;28;20057;-69
2022/08/27 07:38:38;;;;;;;5.80;1.10;;;20.80;99.90;;;;;;4977139;28;20373;-68
2022/08/27 07:41:09;;;;;;;5.78;1.13;;;21.00;99.90;;;;;;4977815;28;20039;-75
2022/08/27 07:46:22;;;;;;;10.45;1.17;;;20.80;99.90;;;;;;4977927;28;20077;-74
2022/08/27 07:48:48;;;;;;;7.63;1.17;;;20.90;99.90;;;;;;4977329;28;20420;-74
2022/08/27 07:51:17;;;;;;;6.28;0.98;;;20.80;99.90;;;;;;4977495;28;20035;-75
2022/08/27 07:53:44;;;;;;;6.47;1.17;;;20.90;99.90;;;;;;4977408;28;20085;-74
2022/08/27 07:56:11;;;;;;;5.10;1.33;;;21.00;99.90;;;;;;4977371;28;20449;-75
2022/08/27 07:58:37;;;;;;;7.18;1.08;;;21.20;99.90;;;;;;4977280;28;20381;-76
2022/08/27 08:01:03;;;;;;;5.32;1.20;;;21.40;99.90;;;;;;4977238;28;20455;-74
2022/08/27 08:03:30;;;;;;;10.25;1.60;;;21.60;99.90;;;;;;4977578;28;20141;-74
2022/08/27 08:05:56;;;;;;;5.35;1.20;;;21.50;99.90;;;;;;4977410;28;20053;-74
2022/08/27 08:08:23;;;;;;;7.40;1.40;;;21.10;99.90;;;;;;4974467;28;20035;-74
2022/08/27 08:10:49;;;;;;;4.95;1.48;;;21.20;99.90;;;;;;4975539;28;20122;-74
2022/08/27 08:13:16;;;;;;;7.38;1.00;;;21.40;99.90;;;;;;4976250;28;20054;-76
2022/08/27 08:15:45;;;;;;;10.02;1.15;;;21.20;99.90;;;;;;4975110;28;20039;-74
2022/08/27 08:18:10;;;;;;;8.45;1.10;;;21.20;99.90;;;;;;4974377;28;20326;-75
2022/08/27 08:20:36;;;;;;;7.57;1.30;;;20.90;99.90;;;;;;4977187;28;20050;-74
2022/08/27 08:23:02;;;;;;;13.90;1.52;;;20.70;99.90;;;;;;4992236;28;20043;-73
2022/08/27 08:25:29;;;;;;;10.02;1.27;;;20.60;99.90;;;;;;4977128;28;20046;-74
2022/08/27 08:27:54;;;;;;;6.30;1.08;;;20.50;99.90;;;;;;4992147;28;20051;-73
2022/08/27 08:30:21;;;;;;;6.35;1.00;;;20.40;99.90;;;;;;4976064;28;20118;-82
2022/08/27 08:32:47;;;;;;;9.55;1.20;;;20.60;99.90;;;;;;4992029;28;20043;-82
2022/08/27 08:35:13;;;;;;;9.32;1.20;;;20.50;99.90;;;;;;4995362;28;20053;-77
2022/08/27 08:37:42;;;;;;;8.20;1.33;;;20.50;99.90;;;;;;4995450;28;20043;-81
2022/08/27 08:40:08;;;;;;;7.53;0.80;;;20.40;99.90;;;;;;4995812;28;20054;-84
2022/08/27 08:42:50;;;;;;;7.35;1.00;;;20.60;99.90;;;;;;4978860;28;20042;-85
2022/08/27 08:45:24;;;;;;;10.80;1.25;;;20.70;99.90;;;;;;4995549;28;20047;-72
2022/08/27 08:47:55;;;;;;;6.13;1.02;;;20.70;99.90;;;;;;4975784;28;20043;-73
2022/08/27 08:50:48;;;;;;;9.35;1.23;;;20.80;99.90;;;;;;4976531;28;20369;-73
2022/08/27 08:53:30;;;;;;;5.95;1.10;;;21.00;99.90;;;;;;4978123;28;20461;-72
2022/08/27 08:56:02;;;;;;;7.57;0.90;;;21.10;99.90;;;;;;4978131;28;20042;-72
2022/08/27 08:58:48;;;;;;;3.40;0.90;;;20.80;99.90;;;;;;4979153;28;20050;-72
2022/08/27 09:01:18;;;;;;;8.35;1.08;;;20.90;99.90;;;;;;4980518;28;20065;-73
2022/08/27 09:03:53;;;;;;;6.85;1.02;;;20.90;99.90;;;;;;4980449;28;20125;-72
2022/08/27 09:06:33;;;;;;;6.18;1.35;;;21.00;99.90;;;;;;4995520;28;20049;-72
2022/08/27 09:09:07;;;;;;;11.27;1.20;;;21.20;99.90;;;;;;4980070;28;20109;-71
2022/08/27 09:11:49;;;;;;;5.55;1.00;;;21.50;99.90;;;;;;4995477;28;20050;-72
2022/08/27 09:14:45;;;;;;;4.45;1.00;;;21.80;99.90;;;;;;4995491;28;20057;-72
2022/08/27 09:17:10;;;;;;;7.72;0.98;;;22.10;99.80;;;;;;4980117;28;20042;-72
2022/08/27 09:19:36;;;;;;;7.90;1.15;;;22.30;99.90;;;;;;4980054;28;20374;-72
2022/08/27 09:22:28;;;;;;;9.18;1.67;;;22.60;99.90;;;;;;4979877;28;20035;-73
2022/08/27 09:25:02;;;;;;;9.55;1.10;;;22.60;99.70;;;;;;4978989;28;20109;-72
2022/08/27 09:27:28;;;;;;;10.70;1.38;;;22.40;99.40;;;;;;4979886;28;20043;-72
2022/08/27 09:29:55;;;;;;;4.60;1.02;;;22.00;98.90;;;;;;4980010;28;20038;-72
2022/08/27 09:32:24;;;;;;;6.18;0.90;;;21.70;98.40;;;;;;4979810;28;20399;-72
2022/08/27 09:34:50;;;;;;;5.65;0.93;;;21.60;99.10;;;;;;4979131;28;20145;-73
2022/08/27 09:37:21;;;;;;;4.40;0.82;;;21.50;98.70;;;;;;4979411;28;20133;-72
2022/08/27 09:39:51;;;;;;;3.75;0.70;;;21.40;99.00;;;;;;4979776;28;20038;-72
2022/08/27 09:42:33;;;;;;;5.03;1.08;;;21.40;99.00;;;;;;4979526;28;20133;-72
2022/08/27 09:44:58;;;;;;;6.45;1.25;;;21.60;99.00;;;;;;4979097;28;20057;-73
2022/08/27 09:47:25;;;;;;;9.70;1.55;;;21.70;99.20;;;;;;4978920;28;20046;-72
2022/08/27 09:50:04;;;;;;;8.23;1.38;;;21.60;99.50;;;;;;4979295;28;20041;-72
2022/08/27 09:52:55;;;;;;;5.57;1.00;;;21.80;99.50;;;;;;4978279;28;20039;-72
2022/08/27 09:55:48;;;;;;;8.18;1.35;;;21.80;99.60;;;;;;4979383;28;20053;-72
2022/08/27 09:58:20;;;;;;;8.07;1.00;;;21.60;99.30;;;;;;4979534;28;20093;-72
2022/08/27 10:00:48;;;;;;;5.22;0.93;;;21.70;99.30;;;;;;4978203;28;20053;-72
2022/08/27 10:03:14;;;;;;;6.47;1.00;;;21.80;99.30;;;;;;4979215;28;20046;-73
2022/08/27 10:05:50;;;;;;;5.90;0.88;;;22.00;99.50;;;;;;4979103;28;20054;-73
2022/08/27 10:08:24;;;;;;;6.75;0.80;;;22.30;99.20;;;;;;4977361;28;20054;-72
2022/08/27 10:10:59;;;;;;;6.00;1.00;;;22.40;98.90;;;;;;4979083;28;20121;-73
2022/08/27 10:14:12;;;;;;;6.97;1.58;;;22.80;99.00;;;;;;4978942;28;20389;-72
2022/08/27 10:17:01;;;;;;;5.53;1.23;;;23.50;98.90;;;;;;4978746;28;20043;-73
2022/08/27 10:19:38;;;;;;;3.40;0.77;;;23.60;98.40;;;;;;4978840;28;20476;-72
2022/08/27 10:22:19;;;;;;;6.70;0.80;;;23.40;98.60;;;;;;4978743;28;20039;-73
2022/08/27 10:24:56;;;;;;;4.13;1.13;;;23.20;98.60;;;;;;4978777;28;20105;-73
2022/08/27 10:27:44;;;;;;;7.18;0.90;;;22.90;98.80;;;;;;4993846;28;20050;-72
2022/08/27 10:30:17;;;;;;;7.07;1.05;;;23.10;98.60;;;;;;4978614;28;20121;-72
2022/08/27 10:32:55;;;;;;;9.60;0.93;;;23.20;98.60;;;;;;4993821;28;20468;-72
2022/08/27 10:35:41;;;;;;;6.50;0.82;;;23.20;98.70;;;;;;4978365;28;20117;-72
2022/08/27 10:38:16;;;;;;;7.72;0.95;;;23.30;98.70;;;;;;4978194;28;20124;-72
2022/08/27 10:40:49;;;;;;;11.10;1.35;;;23.10;98.80;;;;;;4993958;28;20113;-72
2022/08/27 10:43:40;;;;;;;8.95;0.82;;;22.60;98.50;;;;;;4978330;28;20074;-72
2022/08/27 10:46:27;;;;;;;6.78;1.00;;;22.40;99.00;;;;;;4978294;28;20051;-72
2022/08/27 10:49:08;;;;;;;3.42;1.00;;;22.60;98.50;;;;;;4978379;28;20038;-72
2022/08/27 10:51:44;;;;;;;7.97;0.85;;;22.70;98.50;;;;;;4978419;28;20038;-72
2022/08/27 10:54:20;;;;;;;;;;;22.40;98.40;;;;;;4978757;28;20125;-72
2022/08/27 10:57:00;;;;;;;6.78;0.82;;;22.40;98.80;;;;;;4977765;28;19921;-72
2022/08/27 10:59:34;;;;;;;6.90;0.93;;;22.90;98.10;;;;;;4977187;28;20334;-72
2022/08/27 11:02:13;;;;;;;9.07;0.95;;;23.60;98.30;;;;;;4978125;28;20038;-72
2022/08/27 11:04:53;;;;;;;6.18;1.25;;;24.00;97.60;;;;;;4978140;28;20039;-72
2022/08/27 11:07:22;;;;;;;6.30;0.70;;;24.30;97.70;;;;;;4977726;28;20074;-73
2022/08/27 11:09:57;;;;;;;5.95;0.95;;;24.30;98.00;;;;;;4977897;28;20042;-72
2022/08/27 11:12:31;;;;;;;5.57;0.80;;;23.30;98.20;;;;;;4978018;28;20039;-72
2022/08/27 11:15:07;;;;;;;6.57;0.88;;;23.20;98.60;;;;;;4977692;28;20912;-73
2022/08/27 11:17:55;;;;;;;6.18;1.27;;;23.10;98.50;;;;;;4977770;28;20051;-73
2022/08/27 11:20:30;;;;;;;7.47;0.90;;;23.00;98.60;;;;;;4994929;28;20046;-72
2022/08/27 11:23:03;;;;;;;5.97;1.38;;;22.80;98.60;;;;;;4977660;28;20121;-72
2022/08/27 11:25:55;;;;;;;6.00;0.70;;;22.60;98.40;;;;;;4977026;28;20095;-73
2022/08/27 11:28:37;;;;;;;5.38;0.85;;;22.70;98.70;;;;;;4977893;28;20054;-72
2022/08/27 11:31:03;;;;;;;4.53;0.82;;;23.00;98.40;;;;;;4977709;28;20475;-73
2022/08/27 11:33:57;;;;;;;6.43;0.95;;;23.40;98.30;;;;;;4977576;28;20138;-73
2022/08/27 11:36:38;;;;;;;6.53;1.33;;;23.70;98.20;;;;;;4977788;28;20047;-73
2022/08/27 11:39:29;;;;;;;4.75;0.60;;;24.00;98.00;;;;;;4977597;28;20128;-72
2022/08/27 11:42:22;;;;;;;6.18;0.80;;;24.30;97.80;;;;;;4977512;28;20047;-72
2022/08/27 11:44:54;;;;;;;3.53;0.60;;;24.50;97.40;;;;;;4977634;28;20051;-72
2022/08/27 11:47:23;;;;;;;6.85;0.70;;;24.30;97.50;;;;;;4976857;28;20154;-72
2022/08/27 11:49:49;;;;;;;4.85;0.70;;;24.10;97.60;;;;;;4977320;28;20042;-72
2022/08/27 11:52:40;;;;;;;4.25;0.88;;;24.00;97.90;;;;;;4976833;28;20089;-73
2022/08/27 11:55:18;;;;;;;6.32;0.77;;;24.60;97.20;;;;;;4976324;28;20034;-72
2022/08/27 11:57:45;;;;;;;3.00;0.60;;;24.90;96.90;;;;;;4977555;28;20126;-72
2022/08/27 12:00:20;;;;;;;5.60;0.77;;;24.60;97.00;;;;;;4992924;28;20073;-72
2022/08/27 12:02:59;;;;;;;9.40;0.88;;;24.20;97.10;;;;;;4977148;28;20521;-73
2022/08/27 12:05:44;;;;;;;4.35;0.60;;;24.30;97.10;;;;;;4977622;28;20353;-72
2022/08/27 12:08:33;;;;;;;4.22;0.68;;;24.50;97.30;;;;;;4976974;28;20042;-72
2022/08/27 12:11:07;;;;;;;5.63;0.77;;;24.20;97.30;;;;;;4981093;28;20082;-73
2022/08/27 12:13:41;;;;;;;3.63;0.60;;;24.10;97.60;;;;;;4981471;28;20038;-73
2022/08/27 12:16:34;;;;;;;8.88;0.75;;;24.10;97.60;;;;;;4981114;28;20039;-73
2022/08/27 12:19:15;;;;;;;3.17;0.68;;;24.40;97.50;;;;;;4981082;28;20404;-72
2022/08/27 12:22:06;;;;;;;4.38;0.65;;;24.60;97.20;;;;;;4980865;28;20475;-72
2022/08/27 12:24:37;;;;;;;3.33;0.70;;;24.40;97.30;;;;;;4996055;28;20042;-72
2022/08/27 12:27:35;;;;;;;4.18;0.70;;;24.70;97.30;;;;;;4980852;28;20046;-72
2022/08/27 12:30:19;;;;;;;4.05;0.70;;;24.90;97.00;;;;;;4987902;28;20061;-73
2022/08/27 12:32:49;;;;;;;4.85;0.73;;;25.30;97.30;;;;;;4980902;28;20100;-73
2022/08/27 12:35:20;;;;;;;5.68;0.98;;;26.00;96.80;;;;;;4980768;28;20050;-72
2022/08/27 12:38:23;;;;;;;7.07;0.85;;;26.40;96.60;;;;;;4980233;28;20051;-73
2022/08/27 12:40:53;;;;;;;4.72;0.75;;;26.50;96.80;;;;;;4980715;28;20043;-72
2022/08/27 12:43:24;;;;;;;4.93;0.55;;;26.90;96.60;;;;;;4980827;28;20042;-72
2022/08/27 12:46:05;;;;;;;7.70;0.80;;;27.20;96.50;;;;;;4980561;28;20051;-73
2022/08/27 12:48:38;;;;;;;3.08;0.40;;;27.40;96.50;;;;;;4979544;28;20047;-73
2022/08/27 12:51:11;;;;;;;4.03;0.47;;;26.80;96.70;;;;;;4980481;28;20043;-72
2022/08/27 12:53:42;;;;;;;3.83;0.75;;;26.60;96.30;;;;;;4979616;28;20637;-73
2022/08/27 12:56:26;;;;;;;5.53;0.55;;;26.70;96.50;;;;;;4980435;28;20108;-72
2022/08/27 12:58:57;;;;;;;5.70;0.70;;;26.90;96.40;;;;;;4980213;28;20070;-73
2022/08/27 13:01:50;;;;;;;4.88;0.65;;;26.90;96.40;;;;;;4980578;28;20342;-73
2022/08/27 13:04:28;;;;;;;5.40;0.60;;;27.00;96.30;;;;;;4980211;28;20049;-73
2022/08/27 13:06:54;;;;;;;5.28;0.55;;;27.30;96.20;;;;;;4979890;28;20047;-73
2022/08/27 13:09:28;;;;;;;4.05;0.50;;;26.70;95.80;;;;;;4980282;28;20045;-73
2022/08/27 13:11:55;;;;;;;2.92;0.60;;;26.60;95.90;;;;;;4980139;28;20045;-73